createdAt,value
2023-04-20T00:01:20.099Z,99.90
2023-04-20T00:03:48.560Z,99.90
2023-04-20T00:06:16.910Z,99.90
2023-04-20T00:08:45.503Z,99.90
2023-04-20T00:11:13.795Z,99.90
2023-04-20T00:13:42.070Z,99.90
2023-04-20T00:16:10.433Z,99.90
2023-04-20T00:18:40.336Z,99.90
2023-04-20T00:21:09.300Z,99.90
2023-04-20T00:23:37.602Z,99.90
2023-04-20T00:26:06.315Z,99.90
2023-04-20T00:28:34.864Z,99.90
2023-04-20T00:31:03.175Z,99.90
2023-04-20T00:33:31.501Z,99.90
2023-04-20T00:36:01.218Z,99.90
2023-04-20T00:38:29.431Z,99.90
2023-04-20T00:41:00.934Z,99.90
2023-04-20T00:43:29.304Z,99.90
2023-04-20T00:45:57.909Z,99.90
2023-04-20T00:48:26.405Z,99.90
2023-04-20T00:50:54.762Z,99.90
2023-04-20T00:53:24.474Z,99.90
2023-04-20T00:55:52.874Z,99.90
2023-04-20T00:58:21.147Z,99.90
2023-04-20T01:00:49.554Z,99.90
2023-04-20T01:03:19.825Z,99.90
2023-04-20T01:05:50.183Z,99.90
2023-04-20T01:08:18.470Z,99.90
2023-04-20T01:10:48.104Z,99.90
2023-04-20T01:13:16.506Z,99.90
2023-04-20T01:15:44.864Z,99.90
2023-04-20T01:18:13.755Z,99.90
2023-04-20T01:20:42.276Z,99.90
2023-04-20T01:23:11.912Z,99.90
2023-04-20T01:25:40.243Z,99.90
2023-04-20T01:28:09.402Z,99.90
2023-04-20T01:30:38.883Z,99.90
2023-04-20T01:33:07.188Z,99.90
2023-04-20T01:35:36.300Z,99.90
2023-04-20T01:38:04.528Z,99.90
2023-04-20T01:40:34.766Z,99.90
2023-04-20T01:43:03.053Z,99.90
2023-04-20T01:45:31.423Z,99.90
2023-04-20T01:47:59.761Z,99.90
2023-04-20T01:50:28.101Z,99.90
2023-04-20T01:52:56.673Z,99.90
2023-04-20T01:55:25.118Z,99.90
2023-04-20T01:57:55.622Z,99.90
2023-04-20T02:00:25.214Z,99.90
2023-04-20T02:02:53.665Z,99.90
2023-04-20T02:05:24.470Z,99.90
2023-04-20T02:07:52.791Z,99.90
2023-04-20T02:10:21.287Z,99.90
2023-04-20T02:12:50.438Z,99.90
2023-04-20T02:15:20.138Z,99.90
2023-04-20T02:17:52.177Z,99.90
2023-04-20T02:20:21.454Z,99.90
2023-04-20T02:22:50.301Z,99.90
2023-04-20T02:25:18.683Z,99.90
2023-04-20T02:27:46.933Z,99.90
2023-04-20T02:30:15.454Z,99.90
2023-04-20T02:32:45.594Z,99.90
2023-04-20T02:35:16.329Z,99.90
2023-04-20T02:37:45.379Z,99.90
2023-04-20T02:40:14.049Z,99.90
2023-04-20T02:42:42.362Z,99.90
2023-04-20T02:45:12.632Z,99.90
2023-04-20T02:47:44.876Z,99.90
2023-04-20T02:50:14.468Z,99.90
2023-04-20T02:53:08.803Z,99.90
2023-04-20T02:55:38.483Z,99.90
2023-04-20T02:58:17.657Z,99.90
2023-04-20T03:01:08.907Z,99.90
2023-04-20T03:03:40.176Z,99.90
2023-04-20T03:06:12.327Z,99.90
2023-04-20T03:08:43.528Z,99.90
2023-04-20T03:11:34.993Z,99.90
2023-04-20T03:14:03.780Z,99.90
2023-04-20T03:16:32.369Z,99.90
2023-04-20T03:19:02.216Z,99.90
2023-04-20T03:21:31.482Z,99.90
2023-04-20T03:23:59.847Z,99.90
2023-04-20T03:26:28.402Z,99.90
2023-04-20T03:29:12.231Z,99.90
2023-04-20T03:31:41.148Z,99.90
2023-04-20T03:34:12.555Z,99.90
2023-04-20T03:36:41.213Z,99.90
2023-04-20T03:39:09.696Z,99.90
2023-04-20T03:41:38.021Z,99.90
2023-04-20T03:44:07.168Z,99.90
2023-04-20T03:46:36.384Z,99.90
2023-04-20T03:49:04.873Z,99.90
2023-04-20T03:51:34.620Z,99.90
2023-04-20T03:54:02.957Z,99.90
2023-04-20T03:56:31.520Z,99.90
2023-04-20T03:59:00.006Z,99.90
2023-04-20T04:01:29.274Z,99.90
2023-04-20T04:03:58.714Z,99.90
2023-04-20T04:06:27.546Z,99.90
2023-04-20T04:08:57.244Z,99.90
2023-04-20T04:11:26.094Z,99.90
2023-04-20T04:13:54.384Z,99.90
2023-04-20T04:16:22.822Z,99.90
2023-04-20T04:18:52.065Z,99.90
2023-04-20T04:21:20.974Z,99.90
2023-04-20T04:23:57.585Z,99.90
2023-04-20T04:26:46.881Z,99.90
2023-04-20T04:29:16.073Z,99.90
2023-04-20T04:31:44.812Z,99.90
2023-04-20T04:34:18.474Z,99.90
2023-04-20T04:36:51.236Z,99.90
2023-04-20T04:39:27.085Z,99.90
2023-04-20T04:42:04.960Z,99.90
2023-04-20T04:44:42.320Z,99.90
2023-04-20T04:47:14.580Z,99.90
2023-04-20T04:49:42.885Z,99.90
2023-04-20T04:52:11.284Z,99.90
2023-04-20T04:54:41.047Z,99.90
2023-04-20T04:57:09.336Z,99.90
2023-04-20T04:59:37.710Z,99.90
2023-04-20T05:02:06.328Z,99.90
2023-04-20T05:04:34.964Z,99.90
2023-04-20T05:07:03.322Z,99.90
2023-04-20T05:09:33.595Z,99.90
2023-04-20T05:12:04.048Z,99.90
2023-04-20T05:14:33.518Z,99.90
2023-04-20T05:17:03.413Z,99.90
2023-04-20T05:19:31.730Z,99.90
2023-04-20T05:22:00.054Z,99.90
2023-04-20T05:24:28.799Z,99.90
2023-04-20T05:26:57.208Z,99.90
2023-04-20T05:29:26.823Z,99.90
2023-04-20T05:31:55.233Z,99.90
2023-04-20T05:34:23.602Z,99.90
2023-04-20T05:36:54.742Z,99.90
2023-04-20T05:39:23.069Z,99.90
2023-04-20T05:41:51.361Z,99.90
2023-04-20T05:44:19.693Z,99.90
2023-04-20T05:48:10.602Z,99.90
2023-04-20T05:50:46.973Z,99.90
2023-04-20T05:57:14.190Z,99.90
2023-04-20T06:00:30.124Z,99.90
2023-04-20T06:03:18.016Z,99.90
2023-04-20T06:06:08.671Z,99.90
2023-04-20T06:10:11.801Z,99.90
2023-04-20T06:12:20.698Z,99.90
2023-04-20T06:14:58.477Z,99.90
2023-04-20T06:21:06.102Z,99.90
2023-04-20T06:23:47.761Z,99.90
2023-04-20T06:26:58.953Z,99.90
2023-04-20T06:29:38.593Z,99.90
2023-04-20T06:32:29.411Z,99.90
2023-04-20T06:35:19.439Z,99.90
2023-04-20T06:38:12.999Z,99.90
2023-04-20T06:41:17.650Z,99.90
2023-04-20T06:43:56.840Z,99.90
2023-04-20T06:46:34.772Z,99.90
2023-04-20T06:49:03.399Z,99.90
2023-04-20T06:51:33.416Z,99.90
2023-04-20T06:54:01.865Z,99.90
2023-04-20T06:56:32.676Z,99.90
2023-04-20T06:59:02.027Z,99.90
2023-04-20T07:01:30.877Z,99.90
2023-04-20T07:03:59.445Z,99.90
2023-04-20T07:06:28.669Z,99.90
2023-04-20T07:08:57.140Z,99.90
2023-04-20T07:11:25.809Z,99.90
2023-04-20T07:13:55.568Z,99.90
2023-04-20T07:16:24.000Z,99.90
2023-04-20T07:18:52.385Z,99.90
2023-04-20T07:21:21.007Z,99.90
2023-04-20T07:23:49.613Z,99.90
2023-04-20T07:26:18.107Z,99.90
2023-04-20T07:28:46.449Z,99.90
2023-04-20T07:31:16.276Z,99.90
2023-04-20T07:33:45.027Z,99.90
2023-04-20T07:36:13.633Z,99.90
2023-04-20T07:38:42.091Z,99.90
2023-04-20T07:41:11.176Z,99.90
2023-04-20T07:43:39.932Z,99.90
2023-04-20T07:46:08.476Z,99.90
2023-04-20T07:48:38.396Z,99.90
2023-04-20T07:51:06.863Z,99.90
2023-04-20T07:53:35.655Z,99.90
2023-04-20T07:56:04.130Z,99.90
2023-04-20T07:58:32.484Z,99.90
2023-04-20T08:01:00.924Z,99.90
2023-04-20T08:03:29.451Z,99.90
2023-04-20T08:05:59.445Z,99.90
2023-04-20T08:08:28.217Z,99.90
2023-04-20T08:10:58.228Z,99.90
2023-04-20T08:13:27.564Z,99.90
2023-04-20T08:15:56.056Z,99.90
2023-04-20T08:18:42.837Z,99.90
2023-04-20T08:21:12.763Z,99.90
2023-04-20T08:23:41.134Z,99.90
2023-04-20T08:26:09.740Z,99.90
2023-04-20T08:28:38.143Z,99.90
2023-04-20T08:31:06.570Z,99.90
2023-04-20T08:33:35.287Z,99.90
2023-04-20T08:36:03.785Z,99.90
2023-04-20T08:38:34.365Z,99.90
2023-04-20T08:41:03.109Z,99.90
2023-04-20T08:43:32.408Z,99.90
2023-04-20T08:46:02.966Z,99.90
2023-04-20T08:48:36.568Z,99.90
2023-04-20T08:51:05.515Z,99.90
2023-04-20T08:53:35.355Z,99.90
2023-04-20T08:56:36.119Z,99.90
2023-04-20T08:59:05.521Z,99.90
2023-04-20T09:01:36.297Z,99.90
2023-04-20T09:04:16.250Z,99.90
2023-04-20T09:06:45.630Z,99.90
2023-04-20T09:09:16.599Z,99.90
2023-04-20T09:11:46.683Z,99.90
2023-04-20T09:14:18.306Z,99.90
2023-04-20T09:16:52.167Z,99.90
2023-04-20T09:19:24.923Z,99.90
2023-04-20T09:21:54.527Z,99.90
2023-04-20T09:24:26.343Z,99.90
2023-04-20T09:26:55.125Z,99.90
2023-04-20T09:29:25.689Z,99.90
2023-04-20T09:31:54.528Z,99.90
2023-04-20T09:34:24.754Z,99.90
2023-04-20T09:36:54.724Z,99.90
2023-04-20T09:39:26.926Z,99.90
2023-04-20T09:41:58.499Z,99.90
2023-04-20T09:44:27.055Z,99.90
2023-04-20T09:46:55.527Z,99.90
2023-04-20T09:49:24.075Z,99.90
2023-04-20T09:51:52.780Z,99.90
2023-04-20T09:54:21.489Z,99.90
2023-04-20T09:56:51.951Z,99.90
2023-04-20T09:59:22.544Z,99.90
2023-04-20T10:01:51.137Z,99.90
2023-04-20T10:04:19.882Z,99.90
2023-04-20T10:06:54.985Z,99.90
2023-04-20T10:09:26.055Z,99.90
2023-04-20T10:12:07.183Z,99.90
2023-04-20T10:14:36.287Z,99.90
2023-04-20T10:17:07.537Z,99.90
2023-04-20T10:19:43.612Z,99.90
2023-04-20T10:22:14.608Z,99.90
2023-04-20T10:24:43.129Z,99.90
2023-04-20T10:27:26.840Z,99.90
2023-04-20T10:30:00.939Z,99.90
2023-04-20T10:32:32.860Z,99.90
2023-04-20T10:35:06.421Z,99.50
2023-04-20T10:37:35.451Z,99.90
2023-04-20T10:40:07.462Z,99.90
2023-04-20T10:42:44.858Z,98.60
2023-04-20T10:45:14.031Z,99.90
2023-04-20T10:47:42.458Z,99.90
2023-04-20T10:50:12.701Z,99.90
2023-04-20T10:52:42.417Z,99.90
2023-04-20T10:55:20.667Z,99.90
2023-04-20T10:57:50.743Z,99.90
2023-04-20T11:00:20.807Z,99.50
2023-04-20T11:02:53.562Z,99.90
2023-04-20T11:05:23.456Z,99.90
2023-04-20T11:07:55.353Z,99.20
2023-04-20T11:10:25.678Z,99.90
2023-04-20T11:12:55.693Z,99.20
2023-04-20T11:15:33.021Z,99.10
2023-04-20T11:18:08.670Z,99.20
2023-04-20T11:20:37.492Z,99.90
2023-04-20T11:23:06.799Z,99.90
2023-04-20T11:25:35.488Z,98.40
2023-04-20T11:28:09.749Z,98.70
2023-04-20T11:30:42.129Z,97.30
2023-04-20T11:33:11.120Z,99.90
2023-04-20T11:35:40.363Z,97.70
2023-04-20T11:38:09.045Z,97.90
2023-04-20T11:40:37.715Z,96.60
2023-04-20T11:43:06.301Z,96.80
2023-04-20T11:45:36.746Z,97.40
2023-04-20T11:48:06.633Z,98.60
2023-04-20T11:50:35.090Z,98.00
2023-04-20T11:53:03.620Z,98.10
2023-04-20T11:55:31.924Z,97.40
2023-04-20T11:58:00.262Z,96.90
2023-04-20T12:00:28.796Z,98.50
2023-04-20T12:03:00.062Z,98.00
2023-04-20T12:05:28.809Z,97.90
2023-04-20T12:07:57.232Z,98.60
2023-04-20T12:10:25.855Z,98.90
2023-04-20T12:12:54.965Z,99.10
2023-04-20T12:15:23.477Z,98.10
2023-04-20T12:17:51.972Z,99.90
2023-04-20T12:20:21.782Z,99.90
2023-04-20T12:22:50.283Z,99.90
2023-04-20T12:25:18.812Z,99.00
2023-04-20T12:27:48.238Z,98.60
2023-04-20T12:30:19.097Z,98.40
2023-04-20T12:32:47.424Z,98.00
2023-04-20T12:35:18.908Z,99.90
2023-04-20T12:37:48.764Z,99.00
2023-04-20T12:40:17.284Z,99.90
2023-04-20T12:42:45.601Z,99.90
2023-04-20T12:45:13.986Z,98.30
2023-04-20T12:47:42.389Z,99.90
2023-04-20T12:50:11.385Z,98.40
2023-04-20T12:52:39.884Z,99.10
2023-04-20T12:55:10.655Z,98.50
2023-04-20T12:57:39.506Z,99.50
2023-04-20T13:00:09.827Z,99.70
2023-04-20T13:02:38.370Z,97.00
2023-04-20T13:05:07.785Z,97.00
2023-04-20T13:07:36.245Z,97.70
2023-04-20T13:10:05.060Z,97.60
2023-04-20T13:12:34.789Z,98.00
2023-04-20T13:15:03.281Z,97.40
2023-04-20T13:17:31.944Z,97.40
2023-04-20T13:20:00.223Z,98.90
2023-04-20T13:22:28.700Z,97.50
2023-04-20T13:24:58.201Z,98.40
2023-04-20T13:27:26.568Z,98.10
2023-04-20T13:29:56.495Z,98.20
2023-04-20T13:32:24.840Z,97.90
2023-04-20T13:34:53.512Z,97.30
2023-04-20T13:38:36.479Z,99.60
2023-04-20T13:41:05.074Z,99.40
2023-04-20T13:43:33.402Z,99.90
2023-04-20T13:46:03.465Z,99.90
2023-04-20T13:48:31.863Z,98.80
2023-04-20T13:51:00.169Z,98.70
2023-04-20T13:53:32.962Z,99.90
2023-04-20T13:56:28.306Z,99.90
2023-04-20T13:58:56.671Z,99.60
2023-04-20T14:01:46.693Z,98.30
2023-04-20T14:04:16.909Z,98.90
2023-04-20T14:07:02.800Z,99.90
2023-04-20T14:09:37.626Z,99.90
2023-04-20T14:12:06.433Z,99.90
2023-04-20T14:14:37.383Z,99.90
2023-04-20T14:17:07.691Z,98.60
2023-04-20T14:19:36.230Z,99.70
2023-04-20T14:22:06.506Z,99.90
2023-04-20T14:24:35.069Z,99.90
2023-04-20T14:27:03.472Z,99.90
2023-04-20T14:29:31.792Z,99.90
2023-04-20T14:32:00.342Z,99.40
2023-04-20T14:35:44.305Z,99.90
2023-04-20T14:38:14.091Z,99.80
2023-04-20T14:40:42.707Z,99.90
2023-04-20T14:43:11.049Z,99.90
2023-04-20T14:45:41.530Z,99.50
2023-04-20T14:48:09.828Z,99.70
2023-04-20T14:50:38.252Z,99.50
2023-04-20T14:53:06.545Z,99.90
2023-04-20T14:55:36.306Z,99.60
2023-04-20T14:58:04.670Z,99.90
2023-04-20T15:00:33.493Z,99.90
2023-04-20T15:03:02.055Z,99.90
2023-04-20T15:05:31.640Z,99.90
2023-04-20T15:08:00.040Z,99.90
2023-04-20T15:10:28.365Z,99.90
2023-04-20T15:12:58.061Z,99.90
2023-04-20T15:15:34.555Z,99.90
2023-04-20T15:18:09.987Z,99.90
2023-04-20T15:20:38.383Z,99.90
2023-04-20T15:23:51.712Z,99.90
2023-04-20T15:26:24.457Z,99.90
2023-04-20T15:28:55.260Z,99.90
2023-04-20T15:31:24.017Z,99.90
2023-04-20T15:33:52.538Z,99.90
2023-04-20T15:36:21.635Z,99.90
2023-04-20T15:38:50.152Z,99.90
2023-04-20T15:41:18.890Z,99.90
2023-04-20T15:43:48.947Z,99.90
2023-04-20T15:46:23.431Z,99.90
2023-04-20T15:48:52.073Z,99.90
2023-04-20T15:51:20.605Z,99.90
2023-04-20T15:53:50.788Z,99.90
2023-04-20T15:56:22.307Z,99.90
2023-04-20T15:58:51.736Z,99.90
2023-04-20T16:01:21.822Z,99.90
2023-04-20T16:03:54.205Z,99.90
2023-04-20T16:06:24.192Z,99.90
2023-04-20T16:08:54.048Z,99.90
2023-04-20T16:11:22.855Z,99.90
2023-04-20T16:13:51.173Z,99.90
2023-04-20T16:16:20.974Z,99.90
2023-04-20T16:19:00.531Z,99.90
2023-04-20T16:21:29.446Z,99.90
2023-04-20T16:23:58.419Z,99.90
2023-04-20T16:26:26.866Z,99.90
2023-04-20T16:28:55.517Z,99.90
2023-04-20T16:31:26.781Z,99.90
2023-04-20T16:33:55.417Z,99.90
2023-04-20T16:36:23.884Z,99.90
2023-04-20T16:38:52.217Z,99.90
2023-04-20T16:41:20.637Z,99.90
2023-04-20T16:43:49.036Z,99.90
2023-04-20T16:46:19.045Z,99.90
2023-04-20T16:48:48.954Z,99.90
2023-04-20T16:51:17.365Z,99.90
2023-04-20T16:54:21.885Z,99.90
2023-04-20T16:56:51.291Z,99.90
2023-04-20T16:59:19.582Z,99.90
2023-04-20T17:01:50.139Z,99.90
2023-04-20T17:08:20.351Z,99.90
2023-04-20T17:10:48.985Z,99.90
2023-04-20T17:13:26.807Z,99.90
2023-04-20T17:15:55.478Z,99.90
2023-04-20T17:18:24.775Z,99.90
2023-04-20T17:20:53.687Z,99.90
2023-04-20T17:23:26.433Z,99.90
2023-04-20T17:25:56.169Z,99.90
2023-04-20T17:28:24.643Z,99.90
2023-04-20T17:30:53.551Z,99.90
2023-04-20T17:33:47.644Z,99.90
2023-04-20T17:36:16.439Z,99.90
2023-04-20T17:38:46.387Z,99.90
2023-04-20T17:41:14.806Z,99.90
2023-04-20T17:43:43.352Z,99.90
2023-04-20T17:46:12.049Z,99.90
2023-04-20T17:48:40.535Z,99.90
2023-04-20T17:51:09.061Z,99.90
2023-04-20T17:53:37.554Z,99.90
2023-04-20T17:56:07.616Z,99.90
2023-04-20T17:58:36.076Z,99.90
2023-04-20T18:01:04.615Z,99.90
2023-04-20T18:03:33.286Z,99.90
2023-04-20T18:06:02.547Z,99.90
2023-04-20T18:08:30.995Z,99.90
2023-04-20T18:10:59.532Z,99.90
2023-04-20T18:13:29.744Z,99.90
2023-04-20T18:15:59.798Z,99.90
2023-04-20T18:18:28.573Z,99.90
2023-04-20T18:20:58.283Z,99.90
2023-04-20T18:23:29.976Z,99.90
2023-04-20T18:25:58.461Z,99.90
2023-04-20T18:28:28.499Z,99.90
2023-04-20T18:30:58.944Z,99.90
2023-04-20T18:33:27.628Z,99.90
2023-04-20T18:35:56.214Z,99.90
2023-04-20T18:38:24.694Z,99.90
2023-04-20T18:40:53.101Z,99.90
2023-04-20T18:43:21.767Z,99.90
2023-04-20T18:45:51.705Z,99.90
2023-04-20T18:48:20.198Z,99.90
2023-04-20T18:50:48.596Z,99.90
2023-04-20T18:53:17.034Z,99.90
2023-04-20T18:55:46.507Z,99.90
2023-04-20T18:58:14.987Z,99.90
2023-04-20T19:00:43.409Z,99.90
2023-04-20T19:03:13.518Z,99.90
2023-04-20T19:05:42.147Z,99.90
2023-04-20T19:08:10.794Z,99.90
2023-04-20T19:10:39.298Z,99.90
2023-04-20T19:13:07.748Z,99.90
2023-04-20T19:15:36.319Z,99.90
2023-04-20T19:18:05.090Z,99.90
2023-04-20T19:20:36.476Z,99.90
2023-04-20T19:23:05.018Z,99.90
2023-04-20T19:25:33.558Z,99.90
2023-04-20T19:28:01.905Z,99.90
2023-04-20T19:30:31.077Z,99.90
2023-04-20T19:33:02.325Z,99.90
2023-04-20T19:35:30.953Z,99.90
2023-04-20T19:38:01.078Z,99.90
2023-04-20T19:40:29.544Z,99.90
2023-04-20T19:42:58.017Z,99.90
2023-04-20T19:45:26.488Z,99.90
2023-04-20T19:47:54.978Z,99.90
2023-04-20T19:50:23.624Z,99.90
2023-04-20T19:52:52.090Z,99.90
2023-04-20T19:55:22.251Z,99.90
2023-04-20T19:57:50.984Z,99.90
2023-04-20T20:00:19.512Z,99.90
2023-04-20T20:02:48.035Z,99.90
2023-04-20T20:05:16.601Z,99.90
2023-04-20T20:07:45.176Z,99.90
2023-04-20T20:10:13.636Z,99.90
2023-04-20T20:12:43.452Z,99.90
2023-04-20T20:15:12.100Z,99.90
2023-04-20T20:17:40.642Z,99.90
2023-04-20T20:20:10.285Z,99.90
2023-04-20T20:22:38.987Z,99.90
2023-04-20T20:25:08.414Z,99.90
2023-04-20T20:27:36.916Z,99.90
2023-04-20T20:30:08.133Z,99.90
2023-04-20T20:32:36.662Z,99.90
2023-04-20T20:35:05.580Z,99.90
2023-04-20T20:37:34.880Z,99.90
2023-04-20T20:40:08.705Z,99.90
2023-04-20T20:42:38.409Z,99.90
2023-04-20T20:45:10.913Z,99.90
2023-04-20T20:47:39.814Z,99.90
2023-04-20T20:50:09.725Z,99.90
2023-04-20T20:52:39.199Z,99.90
2023-04-20T20:55:08.432Z,99.90
2023-04-20T20:57:37.097Z,99.90
2023-04-20T21:00:09.635Z,99.90
2023-04-20T21:02:39.722Z,99.90
2023-04-20T21:05:08.968Z,99.90
2023-04-20T21:07:37.463Z,99.90
2023-04-20T21:10:06.816Z,99.90
2023-04-20T21:12:35.203Z,99.90
2023-04-20T21:15:03.601Z,99.90
2023-04-20T21:17:32.095Z,99.90
2023-04-20T21:20:02.824Z,99.90
2023-04-20T21:22:31.847Z,99.90
2023-04-20T21:25:00.218Z,99.90
2023-04-20T21:27:28.914Z,99.90
2023-04-20T21:29:57.230Z,99.90
2023-04-20T21:32:26.421Z,99.90
2023-04-20T21:34:55.007Z,99.90
2023-04-20T21:37:24.681Z,99.90
2023-04-20T21:39:53.041Z,99.90
2023-04-20T21:42:21.381Z,99.90
2023-04-20T21:44:49.598Z,99.90
2023-04-20T21:47:17.796Z,99.90
2023-04-20T21:49:46.008Z,99.90
2023-04-20T21:52:14.366Z,99.90
2023-04-20T21:54:44.042Z,99.90
2023-04-20T21:57:12.392Z,99.90
2023-04-20T21:59:40.670Z,99.90
2023-04-20T22:02:09.006Z,99.90
2023-04-20T22:04:37.490Z,99.90
2023-04-20T22:07:06.015Z,99.90
2023-04-20T22:09:34.327Z,99.90
2023-04-20T22:12:05.127Z,99.90
2023-04-20T22:14:33.453Z,99.90
2023-04-20T22:17:01.810Z,99.90
2023-04-20T22:19:30.101Z,99.90
2023-04-20T22:21:58.349Z,99.90
2023-04-20T22:24:26.556Z,99.90
2023-04-20T22:26:54.774Z,99.90
2023-04-20T22:29:24.386Z,99.90
2023-04-20T22:31:52.669Z,99.90
2023-04-20T22:34:20.903Z,99.90
2023-04-20T22:36:49.155Z,99.90
2023-04-20T22:39:17.579Z,99.90
2023-04-20T22:41:45.938Z,99.90
2023-04-20T22:44:14.104Z,99.90
2023-04-20T22:46:44.118Z,99.90
2023-04-20T22:49:13.166Z,99.90
2023-04-20T22:51:41.568Z,99.90
2023-04-20T22:54:09.822Z,99.90
2023-04-20T22:56:38.164Z,99.90
2023-04-20T22:59:06.496Z,99.90
2023-04-20T23:01:34.862Z,99.90
2023-04-20T23:04:04.766Z,99.90
2023-04-20T23:06:34.482Z,99.90
2023-04-20T23:09:07.214Z,99.90
2023-04-20T23:11:38.771Z,99.90
2023-04-20T23:14:07.471Z,99.90
2023-04-20T23:16:36.334Z,99.90
2023-04-20T23:19:06.088Z,99.90
2023-04-20T23:21:34.816Z,99.90
2023-04-20T23:24:03.128Z,99.90
2023-04-20T23:26:31.338Z,99.90
2023-04-20T23:28:59.607Z,99.90
2023-04-20T23:31:27.998Z,99.90
2023-04-20T23:33:56.223Z,99.90
2023-04-20T23:36:26.323Z,99.90
2023-04-20T23:38:54.587Z,99.90
2023-04-20T23:41:22.782Z,99.90
2023-04-20T23:43:50.988Z,99.90
2023-04-20T23:46:19.443Z,99.90
2023-04-20T23:48:49.198Z,99.90
2023-04-20T23:51:17.462Z,99.90
2023-04-20T23:53:47.048Z,99.90
2023-04-20T23:56:15.271Z,99.90
2023-04-20T23:58:43.632Z,99.90
